Time;durP1;ratioP1;P1;durP2;ratioP2;P2;SDS_P1;SDS_P2;PMS_P1;PMS_P2;Temp;Humidity;BMP_temperature;BMP_pressure;BME280_temperature;BME280_humidity;BME280_pressure;Samples;Min_cycle;Max_cycle;Signal;HPM_P1;HPM_P2
2023/09/10 00:00:52;;;;;;;1.15;0.90;;;;;;;19.46;59.19;100261.47;5367241;26;34015;-79
2023/09/10 00:03:20;;;;;;;0.95;0.95;;;;;;;19.48;58.52;100262.25;5349512;26;33649;-79
2023/09/10 00:05:47;;;;;;;1.17;0.57;;;;;;;19.52;58.46;100261.06;5367978;26;33403;-79
2023/09/10 00:08:16;;;;;;;0.47;0.35;;;;;;;19.40;58.96;100265.47;5349142;26;33863;-79
2023/09/10 00:10:44;;;;;;;0.37;0.37;;;;;;;19.27;59.49;100258.44;5349069;26;33361;-79
2023/09/10 00:13:12;;;;;;;0.47;0.47;;;;;;;19.38;59.20;100266.56;5349119;26;33114;-79
2023/09/10 00:15:39;;;;;;;2.83;1.80;;;;;;;19.36;59.48;100252.41;5330432;26;33314;-79
2023/09/10 00:18:07;;;;;;;0.70;0.70;;;;;;;19.36;59.37;100252.41;5349528;26;33789;-79
2023/09/10 00:20:35;;;;;;;0.30;0.30;;;;;;;19.44;58.96;100250.03;5348458;26;33916;-79
2023/09/10 00:23:03;;;;;;;3.03;0.50;;;;;;;19.42;58.98;100252.00;5367671;26;34310;-79
2023/09/10 00:25:31;;;;;;;0.28;0.28;;;;;;;19.45;59.04;100254.41;5348838;26;34197;-79
2023/09/10 00:27:58;;;;;;;1.50;1.17;;;;;;;19.49;58.77;100255.06;5367584;26;34377;-79
2023/09/10 00:30:28;;;;;;;1.98;1.80;;;;;;;19.48;58.87;100256.88;5367898;26;34449;-79
2023/09/10 00:32:56;;;;;;;0.70;0.70;;;;;;;19.21;59.53;100254.37;5348818;26;33672;-79
2023/09/10 00:35:23;;;;;;;0.80;0.80;;;;;;;19.30;59.14;100252.88;5330153;26;31771;-79
2023/09/10 00:37:52;;;;;;;0.30;0.30;;;;;;;19.29;59.34;100256.53;5349035;26;32881;-79
2023/09/10 00:40:20;;;;;;;0.55;0.55;;;;;;;19.27;59.51;100248.59;5368073;26;34370;-79
2023/09/10 00:42:47;;;;;;;0.85;0.85;;;;;;;19.25;59.48;100255.03;5367090;26;33426;-79
2023/09/10 00:45:16;;;;;;;2.70;1.40;;;;;;;19.18;59.76;100258.16;5367335;26;33390;-79
2023/09/10 00:47:45;;;;;;;0.30;0.30;;;;;;;19.27;59.19;100253.09;5367749;26;34803;-79
2023/09/10 00:50:13;;;;;;;0.47;0.47;;;;;;;19.29;59.44;100251.16;5348588;26;34614;-79
2023/09/10 00:52:46;;;;;;;0.73;0.73;;;;;;;19.36;59.08;100252.41;5349027;26;32841;-79
2023/09/10 00:55:14;;;;;;;;;;;;;;;19.16;59.78;100252.03;5367598;26;32719;-78
2023/09/10 00:57:43;;;;;;;0.17;0.17;;;;;;;19.31;59.32;100250.06;5348147;26;34388;-78
2023/09/10 01:00:12;;;;;;;11.82;1.10;;;;;;;19.13;59.53;100256.75;5330154;26;32967;-78
2023/09/10 01:02:43;;;;;;;0.40;0.40;;;;;;;19.04;60.15;100257.44;5348719;26;34912;-79
2023/09/10 01:05:11;;;;;;;1.52;1.15;;;;;;;19.02;60.35;100254.84;5330486;26;32625;-79
2023/09/10 01:07:39;;;;;;;0.50;0.40;;;;;;;19.14;59.76;100253.13;5348883;26;34531;-79
2023/09/10 01:10:08;;;;;;;0.75;0.75;;;;;;;19.31;59.22;100259.94;5348596;26;35199;-79
2023/09/10 01:12:43;;;;;;;2.92;0.98;;;;;;;19.09;59.96;100261.50;5349008;26;33993;-79
2023/09/10 01:15:18;;;;;;;0.55;0.55;;;;;;;19.11;59.61;100254.19;5367744;26;33106;-79
2023/09/10 01:18:00;;;;;;;2.75;1.20;;;;;;;18.98;60.54;100252.50;5348029;26;34376;-79
2023/09/10 01:20:51;;;;;;;0.43;0.40;;;;;;;19.08;60.02;100253.56;5366954;26;34482;-79
2023/09/10 01:23:31;;;;;;;1.10;0.73;;;;;;;18.98;60.40;100250.69;5341468;26;34028;-79
2023/09/10 01:25:59;;;;;;;0.73;0.43;;;;;;;18.85;60.89;100248.03;5349421;26;34317;-79
2023/09/10 01:28:27;;;;;;;0.68;0.68;;;;;;;18.98;60.32;100256.03;5367301;26;34696;-79
2023/09/10 01:30:55;;;;;;;1.37;0.75;;;;;;;18.91;60.43;100247.59;5366377;26;33911;-79
2023/09/10 01:33:36;;;;;;;1.42;1.15;;;;;;;18.90;60.69;100248.56;5348035;26;32729;-78
2023/09/10 01:36:18;;;;;;;0.57;0.57;;;;;;;18.99;60.39;100244.37;5366712;26;33663;-78
2023/09/10 01:38:55;;;;;;;3.28;1.80;;;;;;;18.95;60.52;100256.28;5349205;26;33236;-78
2023/09/10 01:41:25;;;;;;;0.82;0.82;;;;;;;18.93;60.52;100250.16;5349110;26;33826;-78
2023/09/10 01:43:53;;;;;;;0.95;0.93;;;;;;;18.80;60.98;100257.34;5349376;26;34470;-78
2023/09/10 01:46:23;;;;;;;0.60;0.60;;;;;;;18.88;60.76;100252.31;5367855;26;34282;-78
2023/09/10 01:48:51;;;;;;;6.47;2.87;;;;;;;18.85;61.12;100247.19;5348868;26;32658;-78
2023/09/10 01:51:19;;;;;;;1.98;0.75;;;;;;;18.88;60.90;100257.66;5349064;26;33959;-78
2023/09/10 01:53:47;;;;;;;1.10;0.80;;;;;;;18.85;60.95;100252.53;5349225;26;33907;-78
2023/09/10 01:56:15;;;;;;;0.90;0.73;;;;;;;18.85;60.81;100253.41;5331119;26;32459;-79
2023/09/10 01:58:43;;;;;;;0.25;0.15;;;;;;;18.87;60.76;100256.81;5368290;26;34026;-78
2023/09/10 02:01:11;;;;;;;0.85;0.85;;;;;;;18.83;60.84;100249.09;5331257;26;34474;-78
2023/09/10 02:03:39;;;;;;;2.65;1.42;;;;;;;18.84;60.79;100256.16;5349332;26;34907;-78
2023/09/10 02:06:06;;;;;;;0.75;0.65;;;;;;;18.99;59.77;100249.75;5367856;26;33348;-78
2023/09/10 02:08:34;;;;;;;0.45;0.45;;;;;;;18.90;60.25;100250.41;5368532;26;33994;-78
2023/09/10 02:11:05;;;;;;;0.50;0.50;;;;;;;18.90;60.29;100258.44;5367764;26;34382;-78
2023/09/10 02:13:33;;;;;;;1.02;0.80;;;;;;;18.79;60.79;100260.97;5348769;26;33930;-78
2023/09/10 02:16:01;;;;;;;1.17;0.32;;;;;;;18.75;61.01;100263.00;5368002;26;33402;-78
2023/09/10 02:18:29;;;;;;;2.00;0.90;;;;;;;18.62;61.21;100260.31;5349385;26;33858;-78
2023/09/10 02:20:57;;;;;;;0.85;0.75;;;;;;;18.50;61.69;100260.31;5367675;26;33574;-78
2023/09/10 02:23:24;;;;;;;0.60;0.43;;;;;;;18.57;61.55;100251.78;5367543;26;33958;-78
2023/09/10 02:25:52;;;;;;;0.17;0.17;;;;;;;18.67;61.01;100263.53;5349454;26;33736;-78
2023/09/10 02:28:23;;;;;;;1.65;0.85;;;;;;;18.60;61.32;100259.56;5349422;26;33288;-78
2023/09/10 02:30:51;;;;;;;0.30;0.30;;;;;;;18.56;61.34;100266.12;5349490;26;33238;-78
2023/09/10 02:33:19;;;;;;;0.60;0.60;;;;;;;18.62;60.95;100268.34;5367316;26;33268;-77
2023/09/10 02:35:46;;;;;;;1.75;1.05;;;;;;;18.62;61.06;100264.81;5349202;26;32827;-77
2023/09/10 02:38:14;;;;;;;0.57;0.40;;;;;;;18.58;61.18;100269.53;5367905;26;34039;-77
2023/09/10 02:40:43;;;;;;;0.40;0.40;;;;;;;18.62;60.92;100267.50;5348794;26;33070;-78
2023/09/10 02:43:10;;;;;;;1.15;0.93;;;;;;;18.67;60.71;100266.22;5348865;26;33212;-79
2023/09/10 02:45:38;;;;;;;1.12;1.02;;;;;;;18.52;61.26;100263.75;5368022;26;33299;-78
2023/09/10 02:48:06;;;;;;;0.68;0.68;;;;;;;18.52;61.20;100261.09;5387842;26;33876;-78
2023/09/10 02:50:34;;;;;;;0.55;0.55;;;;;;;18.50;61.32;100263.84;5349084;26;32831;-79
2023/09/10 02:53:01;;;;;;;2.25;2.05;;;;;;;18.57;61.12;100259.78;5388189;26;34823;-78
2023/09/10 02:55:29;;;;;;;2.92;1.52;;;;;;;18.42;61.61;100258.19;5367554;26;34690;-79
2023/09/10 02:57:57;;;;;;;0.30;0.30;;;;;;;18.47;61.62;100258.72;5349267;26;32391;-78
2023/09/10 03:00:27;;;;;;;3.17;0.95;;;;;;;18.40;61.83;100260.09;5330488;26;33005;-79
2023/09/10 03:02:56;;;;;;;0.52;0.52;;;;;;;18.34;62.01;100257.84;5349288;26;33075;-78
2023/09/10 03:05:24;;;;;;;0.90;0.80;;;;;;;18.37;62.01;100262.97;5368279;26;34277;-79
2023/09/10 03:07:53;;;;;;;1.30;1.02;;;;;;;18.36;61.90;100258.59;5348902;26;33531;-79
2023/09/10 03:10:21;;;;;;;0.45;0.40;;;;;;;18.39;61.62;100253.91;5349265;26;32972;-79
2023/09/10 03:12:49;;;;;;;0.50;0.50;;;;;;;18.26;61.92;100254.84;5368034;26;33926;-79
2023/09/10 03:15:17;;;;;;;5.20;0.98;;;;;;;18.32;61.69;100254.41;5368274;26;33463;-79
2023/09/10 03:17:44;;;;;;;0.40;0.40;;;;;;;18.21;62.13;100256.97;5367511;26;34930;-80
2023/09/10 03:20:12;;;;;;;17.17;1.25;;;;;;;18.32;61.74;100249.91;5330830;26;33013;-79
2023/09/10 03:22:40;;;;;;;0.82;0.82;;;;;;;18.22;62.25;100256.00;5368281;26;33676;-79
2023/09/10 03:25:08;;;;;;;0.50;0.50;;;;;;;18.14;62.50;100252.06;5330561;26;32018;-79
2023/09/10 03:27:36;;;;;;;2.62;1.52;;;;;;;18.27;62.09;100251.19;5330376;26;33086;-78
2023/09/10 03:30:05;;;;;;;0.43;0.43;;;;;;;18.30;61.87;100243.84;5386639;26;34097;-78
2023/09/10 03:32:32;;;;;;;1.10;0.52;;;;;;;18.26;61.69;100244.16;5330319;26;33020;-78
2023/09/10 03:35:03;;;;;;;0.80;0.75;;;;;;;18.20;61.89;100249.91;5348590;26;32842;-78
2023/09/10 03:37:31;;;;;;;0.60;0.60;;;;;;;18.22;61.84;100243.50;5368271;26;33389;-78
2023/09/10 03:39:58;;;;;;;0.80;0.80;;;;;;;18.29;61.60;100244.81;5368096;26;33468;-78
2023/09/10 03:42:26;;;;;;;1.10;0.95;;;;;;;18.23;61.64;100244.34;5367738;26;33915;-78
2023/09/10 03:44:54;;;;;;;0.88;0.57;;;;;;;18.13;61.90;100239.63;5348854;26;33401;-78
2023/09/10 03:47:22;;;;;;;1.27;0.43;;;;;;;18.02;62.41;100242.19;5367019;26;33208;-78
2023/09/10 03:49:50;;;;;;;0.20;0.20;;;;;;;18.06;62.27;100238.34;5349428;26;33924;-78
2023/09/10 03:52:20;;;;;;;2.50;1.27;;;;;;;18.07;62.21;100239.19;5349055;26;34399;-78
2023/09/10 03:54:48;;;;;;;4.93;0.62;;;;;;;18.05;62.35;100236.63;5330420;26;32336;-78
2023/09/10 03:57:16;;;;;;;0.60;0.60;;;;;;;18.02;62.48;100227.97;5367964;26;34568;-78
2023/09/10 03:59:44;;;;;;;4.50;0.60;;;;;;;18.03;62.16;100238.53;5348850;26;32961;-78
2023/09/10 04:02:12;;;;;;;1.58;0.85;;;;;;;18.05;62.23;100233.97;5330282;26;32842;-78
2023/09/10 04:04:41;;;;;;;1.75;1.12;;;;;;;18.04;62.21;100237.59;5387880;26;34091;-78
2023/09/10 04:07:09;;;;;;;0.70;0.68;;;;;;;18.05;62.17;100247.34;5348952;26;33897;-78
2023/09/10 04:09:37;;;;;;;0.62;0.62;;;;;;;17.97;62.43;100249.66;5367842;26;33925;-78
2023/09/10 04:12:05;;;;;;;0.98;0.98;;;;;;;18.00;62.45;100241.44;5367667;26;33667;-78
2023/09/10 04:14:33;;;;;;;1.15;0.93;;;;;;;17.91;62.70;100252.75;5366920;26;34054;-78
2023/09/10 04:17:01;;;;;;;2.78;1.55;;;;;;;17.99;62.40;100253.06;5367655;26;33275;-79
2023/09/10 04:19:29;;;;;;;0.65;0.65;;;;;;;18.00;62.41;100249.47;5349210;26;33600;-78
2023/09/10 04:21:56;;;;;;;0.75;0.70;;;;;;;18.09;61.97;100248.84;5330121;26;33100;-78
2023/09/10 04:24:24;;;;;;;0.62;0.62;;;;;;;17.99;62.75;100250.37;5348312;26;32565;-78
2023/09/10 04:26:53;;;;;;;0.50;0.50;;;;;;;18.11;62.06;100260.28;5349264;26;33975;-78
2023/09/10 04:29:21;;;;;;;0.75;0.75;;;;;;;18.01;62.44;100252.97;5348434;26;34131;-78
2023/09/10 04:31:49;;;;;;;1.95;1.27;;;;;;;18.02;62.34;100263.56;5367354;26;34037;-79
2023/09/10 04:34:17;;;;;;;3.42;1.55;;;;;;;17.91;62.57;100263.44;5330380;26;32719;-79
2023/09/10 04:36:46;;;;;;;4.70;1.62;;;;;;;17.94;62.92;100263.22;5367984;26;33551;-79
2023/09/10 04:39:19;;;;;;;1.02;1.02;;;;;;;17.91;63.22;100268.78;5349994;26;32684;-79
2023/09/10 04:41:47;;;;;;;0.82;0.82;;;;;;;17.99;62.68;100263.75;5348372;26;32803;-79
2023/09/10 04:44:15;;;;;;;1.17;1.08;;;;;;;17.92;62.99;100257.13;5349199;26;33007;-79
2023/09/10 04:46:43;;;;;;;4.07;1.02;;;;;;;17.97;62.88;100267.50;5348354;26;32860;-79
2023/09/10 04:49:11;;;;;;;4.47;1.37;;;;;;;18.17;62.34;100267.00;5330624;26;34113;-79
2023/09/10 04:51:39;;;;;;;1.17;0.85;;;;;;;18.12;62.57;100269.12;5366908;26;34397;-79
2023/09/10 04:54:06;;;;;;;0.82;0.82;;;;;;;18.15;62.63;100261.78;5348603;26;33045;-79
2023/09/10 04:56:35;;;;;;;0.37;0.37;;;;;;;18.20;62.51;100268.63;5348892;26;32527;-79
2023/09/10 04:59:02;;;;;;;0.93;0.90;;;;;;;18.21;62.75;100268.50;5367739;26;34742;-79
2023/09/10 05:01:30;;;;;;;2.95;1.23;;;;;;;18.30;62.54;100267.87;5367574;26;34556;-79
2023/09/10 05:03:58;;;;;;;0.77;0.77;;;;;;;18.37;62.53;100269.19;5367346;26;33438;-79
2023/09/10 05:06:26;;;;;;;0.68;0.60;;;;;;;18.60;61.61;100269.41;5330306;26;33993;-79
2023/09/10 05:08:54;;;;;;;0.75;0.70;;;;;;;18.48;62.27;100270.28;5348579;26;34246;-79
2023/09/10 05:11:22;;;;;;;0.90;0.90;;;;;;;18.50;62.53;100269.19;5367663;26;34772;-79
2023/09/10 05:13:50;;;;;;;1.73;1.25;;;;;;;18.77;61.86;100274.47;5349971;26;32836;-79
2023/09/10 05:16:18;;;;;;;1.60;0.57;;;;;;;18.61;62.57;100277.34;5387966;26;34599;-79
2023/09/10 05:18:47;;;;;;;1.42;0.85;;;;;;;18.92;61.78;100270.72;5350118;26;33592;-79
2023/09/10 05:21:16;;;;;;;0.62;0.62;;;;;;;18.84;62.43;100272.22;5349513;26;32413;-79
2023/09/10 05:23:43;;;;;;;0.50;0.50;;;;;;;18.77;63.08;100279.81;5349714;26;32388;-79
2023/09/10 05:26:11;;;;;;;0.65;0.65;;;;;;;18.88;62.86;100284.41;5349178;26;34594;-79
2023/09/10 05:28:39;;;;;;;1.55;1.25;;;;;;;18.96;62.95;100282.06;5349303;26;33094;-79
2023/09/10 05:31:10;;;;;;;1.17;1.08;;;;;;;19.03;62.95;100283.31;5349797;26;33081;-78
2023/09/10 05:33:38;;;;;;;0.62;0.62;;;;;;;19.16;62.64;100281.50;5349196;26;32699;-78
2023/09/10 05:36:06;;;;;;;0.57;0.57;;;;;;;19.58;61.44;100290.06;5368021;26;34081;-78
2023/09/10 05:38:33;;;;;;;0.65;0.65;;;;;;;19.64;61.98;100288.78;5367953;26;34518;-78
2023/09/10 05:41:02;;;;;;;1.90;1.08;;;;;;;19.75;61.85;100296.00;5326797;26;32937;-78
2023/09/10 05:43:31;;;;;;;1.25;0.88;;;;;;;19.84;62.06;100289.97;5327234;26;32627;-78
2023/09/10 05:45:58;;;;;;;0.60;0.60;;;;;;;20.00;61.23;100287.03;5345010;26;34699;-79
2023/09/10 05:48:27;;;;;;;0.60;0.60;;;;;;;20.00;61.41;100295.91;5345893;26;33673;-78
2023/09/10 05:50:56;;;;;;;0.32;0.32;;;;;;;20.17;61.28;100298.16;5345267;26;33222;-78
2023/09/10 05:53:24;;;;;;;0.90;0.90;;;;;;;20.26;60.82;100295.75;5345685;26;33972;-78
2023/09/10 05:55:53;;;;;;;1.23;1.10;;;;;;;20.39;60.75;100297.41;5364567;26;35377;-78
2023/09/10 05:58:20;;;;;;;1.85;0.77;;;;;;;20.40;60.58;100290.19;5326703;26;33151;-78
2023/09/10 06:00:51;;;;;;;1.10;0.93;;;;;;;20.48;60.71;100293.19;5345212;26;33038;-78
2023/09/10 06:03:19;;;;;;;0.85;0.57;;;;;;;20.61;60.84;100296.62;5327091;26;32359;-78
2023/09/10 06:05:48;;;;;;;0.77;0.68;;;;;;;20.84;nan;100292.16;5365405;26;34347;-78
2023/09/10 06:08:16;;;;;;;2.15;0.70;;;;;;;20.97;60.23;100292.03;5345162;26;33824;-78
2023/09/10 06:10:44;;;;;;;1.75;1.40;;;;;;;20.87;60.67;100297.28;5363550;26;33978;-78
2023/09/10 06:13:12;;;;;;;0.85;0.75;;;;;;;20.95;60.64;100294.00;5363755;26;32585;-79
2023/09/10 06:15:40;;;;;;;1.27;1.10;;;;;;;21.35;59.80;100301.56;5344969;26;33626;-78
2023/09/10 06:18:08;;;;;;;0.77;0.77;;;;;;;21.48;59.34;100296.91;5345413;26;33364;-78
2023/09/10 06:20:36;;;;;;;0.70;0.70;;;;;;;21.29;59.90;100292.16;5363582;26;33939;-78
2023/09/10 06:23:04;;;;;;;1.42;1.35;;;;;;;21.61;59.52;100297.63;5343858;26;34439;-78
2023/09/10 06:25:33;;;;;;;0.77;0.73;;;;;;;21.92;58.32;100300.47;5344595;26;33591;-79
2023/09/10 06:28:01;;;;;;;1.60;1.50;;;;;;;22.15;57.90;100294.06;5345706;26;33950;-79
2023/09/10 06:30:29;;;;;;;1.12;1.02;;;;;;;22.35;57.54;100297.75;5345713;26;34579;-80
2023/09/10 06:32:57;;;;;;;0.95;0.85;;;;;;;22.43;57.55;100295.25;5365341;26;33883;-79
2023/09/10 06:35:25;;;;;;;1.20;1.10;;;;;;;22.67;56.61;100292.28;5363602;26;33635;-80
2023/09/10 06:37:53;;;;;;;1.12;1.02;;;;;;;22.85;56.12;100294.37;5327277;26;33171;-79
2023/09/10 06:40:21;;;;;;;0.90;0.90;;;;;;;23.01;56.55;100292.06;5345427;26;33707;-79
2023/09/10 06:42:49;;;;;;;0.98;0.75;;;;;;;23.20;55.69;100292.16;5363711;26;32983;-79
2023/09/10 06:45:17;;;;;;;2.90;1.77;;;;;;;23.47;52.54;100290.69;5327029;26;33709;-79
2023/09/10 06:47:45;;;;;;;0.40;0.40;;;;;;;23.66;50.81;100296.16;5363276;26;32588;-79
2023/09/10 06:50:13;;;;;;;0.57;0.57;;;;;;;23.76;51.04;100294.31;5345419;26;33167;-79
2023/09/10 06:52:40;;;;;;;1.25;1.00;;;;;;;23.76;51.17;100299.72;5364271;26;32953;-79
2023/09/10 06:55:09;;;;;;;3.72;1.12;;;;;;;24.00;50.57;100296.62;5362991;26;33192;-79
2023/09/10 06:57:39;;;;;;;1.58;1.15;;;;;;;24.14;50.54;100300.75;5344479;26;33856;-79
2023/09/10 07:00:14;;;;;;;0.88;0.88;;;;;;;24.42;50.11;100299.06;5338553;26;34856;-78
2023/09/10 07:02:42;;;;;;;0.50;0.50;;;;;;;24.25;50.07;100302.44;5342363;26;34037;-78
2023/09/10 07:05:11;;;;;;;1.30;0.85;;;;;;;24.27;50.15;100306.72;5361350;26;34775;-79
2023/09/10 07:07:41;;;;;;;3.53;1.40;;;;;;;24.64;49.43;100308.69;5344224;26;34061;-80
2023/09/10 07:10:10;;;;;;;0.68;0.68;;;;;;;24.83;50.16;100312.31;5363080;26;33662;-79
2023/09/10 07:12:37;;;;;;;0.80;0.73;;;;;;;25.06;49.78;100313.69;5345277;26;32743;-79
2023/09/10 07:15:06;;;;;;;1.35;1.25;;;;;;;25.43;49.04;100310.16;5363511;26;34039;-79
2023/09/10 07:17:33;;;;;;;2.12;1.08;;;;;;;25.54;48.87;100320.75;5344681;26;33164;-80
2023/09/10 07:20:01;;;;;;;0.68;0.68;;;;;;;25.43;48.00;100315.56;5363894;26;33651;-80
2023/09/10 07:22:29;;;;;;;1.48;1.37;;;;;;;25.85;47.12;100318.59;5326899;26;33378;-80
2023/09/10 07:24:56;;;;;;;1.27;1.17;;;;;;;25.69;47.31;100315.72;5345250;26;32840;-79
2023/09/10 07:27:24;;;;;;;0.70;0.62;;;;;;;25.60;48.22;100312.06;5363907;26;33927;-80
2023/09/10 07:29:52;;;;;;;1.52;1.42;;;;;;;26.11;45.90;100310.59;5364924;26;33727;-80
2023/09/10 07:33:05;;;;;;;1.98;1.50;;;;;;;25.90;47.52;100319.00;5346299;26;33515;-79
2023/09/10 07:35:33;;;;;;;2.40;1.27;;;;;;;25.65;48.26;100317.84;5363230;26;33642;-80
2023/09/10 07:38:01;;;;;;;1.50;1.40;;;;;;;25.97;47.60;100309.28;5345026;26;33579;-81
2023/09/10 07:40:29;;;;;;;0.70;0.70;;;;;;;26.52;45.73;100317.22;5363785;26;33922;-80
2023/09/10 07:42:59;;;;;;;2.12;1.85;;;;;;;26.69;44.71;100307.38;5349576;26;33509;-80
2023/09/10 07:45:26;;;;;;;1.48;1.02;;;;;;;26.95;44.49;100310.06;5348193;26;33490;-80
2023/09/10 07:47:57;;;;;;;0.98;0.90;;;;;;;26.81;44.78;100306.09;5366861;26;33581;-80
2023/09/10 07:50:28;;;;;;;0.85;0.85;;;;;;;27.16;43.70;100309.72;5366254;26;33444;-80
2023/09/10 07:52:56;;;;;;;1.17;1.07;;;;;;;27.00;43.10;100315.00;5368048;26;33440;-80
2023/09/10 07:55:25;;;;;;;0.68;0.68;;;;;;;27.13;41.52;100303.78;5349022;26;32852;-80
2023/09/10 07:57:52;;;;;;;1.48;0.93;;;;;;;27.30;41.88;100305.56;5367284;26;35005;-80
2023/09/10 08:00:20;;;;;;;0.80;0.80;;;;;;;27.18;41.99;100299.56;5348142;26;33611;-80
2023/09/10 08:02:48;;;;;;;1.65;1.55;;;;;;;27.27;42.14;100300.44;5329978;26;32627;-80
2023/09/10 08:05:16;;;;;;;1.50;1.08;;;;;;;27.38;42.83;100299.31;5368149;26;33946;-80
2023/09/10 08:07:44;;;;;;;0.50;0.50;;;;;;;27.99;40.84;100293.56;5348768;26;33176;-82
2023/09/10 08:10:12;;;;;;;1.55;1.33;;;;;;;28.10;41.17;100288.81;5339355;26;33756;-80
2023/09/10 08:12:39;;;;;;;1.55;1.45;;;;;;;28.52;40.76;100278.66;5348399;26;32366;-80
2023/09/10 08:15:07;;;;;;;3.03;1.67;;;;;;;28.21;40.53;100296.66;5348364;26;32791;-80
2023/09/10 08:17:36;;;;;;;0.60;0.57;;;;;;;28.28;40.23;100292.22;5366492;26;33363;-80
2023/09/10 08:20:06;;;;;;;0.85;0.57;;;;;;;28.00;40.65;100289.00;5348344;26;32970;-80
2023/09/10 08:22:34;;;;;;;1.25;1.20;;;;;;;27.83;41.13;100292.72;5368024;26;33240;-80
2023/09/10 08:25:04;;;;;;;5.93;1.02;;;;;;;28.06;40.97;100291.06;5348355;26;34808;-80
2023/09/10 08:27:32;;;;;;;0.55;0.55;;;;;;;28.28;40.10;100281.37;5348092;26;32895;-80
2023/09/10 08:29:59;;;;;;;1.37;1.17;;;;;;;28.61;40.55;100284.09;5347573;26;32940;-80
2023/09/10 08:32:27;;;;;;;0.85;0.75;;;;;;;28.56;39.89;100279.19;5348099;26;32033;-81
2023/09/10 08:34:55;;;;;;;1.95;1.42;;;;;;;28.70;39.76;100283.91;5349506;26;34047;-80
2023/09/10 08:37:23;;;;;;;1.35;1.25;;;;;;;28.56;38.85;100273.75;5367751;26;33128;-80
2023/09/10 08:39:50;;;;;;;1.58;1.00;;;;;;;28.79;39.24;100280.16;5329481;26;32926;-81
2023/09/10 08:42:53;;;;;;;0.85;0.85;;;;;;;28.88;38.23;100274.72;5348072;26;32741;-80
2023/09/10 08:45:26;;;;;;;0.88;0.88;;;;;;;28.47;38.76;100274.78;5347859;26;34023;-81
2023/09/10 08:47:56;;;;;;;1.42;1.05;;;;;;;28.20;39.24;100278.66;5367047;26;34657;-81
2023/09/10 08:50:24;;;;;;;1.33;1.30;;;;;;;28.63;38.21;100266.63;5348470;26;32895;-81
2023/09/10 08:52:57;;;;;;;0.85;0.82;;;;;;;29.13;37.64;100270.06;5348853;26;33477;-80
2023/09/10 08:55:25;;;;;;;0.43;0.30;;;;;;;28.94;38.81;100266.69;5331152;26;32895;-81
2023/09/10 08:57:56;;;;;;;6.65;2.12;;;;;;;29.26;36.67;100268.50;5346978;26;34659;-81
2023/09/10 09:00:24;;;;;;;1.00;1.00;;;;;;;29.38;36.52;100257.22;5349090;26;33850;-81
2023/09/10 09:02:52;;;;;;;1.87;0.93;;;;;;;29.62;36.63;100270.72;5326948;26;31887;-80
2023/09/10 09:05:20;;;;;;;1.67;1.00;;;;;;;29.44;37.57;100268.25;5347948;26;32982;-81
2023/09/10 09:07:54;;;;;;;2.47;0.88;;;;;;;29.53;36.98;100260.84;5330873;26;33916;-81
2023/09/10 09:10:24;;;;;;;1.35;1.23;;;;;;;29.80;36.94;100254.09;5330564;26;34326;-80
2023/09/10 09:12:55;;;;;;;1.05;0.88;;;;;;;29.85;36.29;100260.69;5367012;26;34964;-81
2023/09/10 09:15:25;;;;;;;1.52;1.02;;;;;;;30.02;35.13;100250.53;5367247;26;34033;-80
2023/09/10 09:17:56;;;;;;;1.00;0.90;;;;;;;30.35;35.18;100248.41;5347969;26;33610;-81
2023/09/10 09:20:25;;;;;;;1.25;1.10;;;;;;;30.10;34.56;100246.91;5348855;26;34444;-81
2023/09/10 09:22:59;;;;;;;1.35;0.75;;;;;;;30.53;33.53;100244.53;5348161;26;32489;-82
2023/09/10 09:25:31;;;;;;;0.77;0.73;;;;;;;30.44;33.29;100234.72;5330677;26;32433;-80
2023/09/10 09:27:59;;;;;;;1.92;1.73;;;;;;;30.45;33.19;100239.97;5367251;26;34729;-81
2023/09/10 09:30:27;;;;;;;1.27;1.08;;;;;;;30.82;33.67;100239.12;5329968;26;33972;-81
2023/09/10 09:32:56;;;;;;;3.40;1.25;;;;;;;31.28;32.88;100233.44;5366936;26;33690;-80
2023/09/10 09:35:25;;;;;;;0.50;0.50;;;;;;;31.01;32.72;100231.41;5339087;26;34262;-80
2023/09/10 09:37:53;;;;;;;1.17;0.80;;;;;;;31.26;32.36;100229.19;5347552;26;33838;-81
2023/09/10 09:40:21;;;;;;;2.78;0.62;;;;;;;31.34;31.77;100229.12;5347974;26;34395;-81
2023/09/10 09:42:49;;;;;;;2.05;1.10;;;;;;;31.60;31.22;100229.41;5325535;26;32205;-81
2023/09/10 09:45:21;;;;;;;0.57;0.57;;;;;;;32.00;31.59;100215.34;5307101;26;34507;-81
2023/09/10 09:47:49;;;;;;;0.52;0.52;;;;;;;31.61;32.11;100219.34;5344638;26;34803;-81
2023/09/10 09:50:19;;;;;;;2.33;1.67;;;;;;;31.31;31.92;100224.88;5325070;26;33667;-80
2023/09/10 09:52:54;;;;;;;0.75;0.75;;;;;;;31.13;33.74;100218.97;5344231;26;32994;-81
2023/09/10 09:55:26;;;;;;;1.90;0.80;;;;;;;31.92;31.10;100212.78;5326678;26;33992;-81
2023/09/10 09:57:54;;;;;;;1.30;1.20;;;;;;;31.85;32.14;100209.97;5326586;26;34095;-80
2023/09/10 10:00:21;;;;;;;2.33;1.17;;;;;;;31.85;30.93;100210.81;5344840;26;33997;-81
2023/09/10 10:02:50;;;;;;;1.23;1.12;;;;;;;31.93;31.85;100211.72;5325950;26;33507;-81
2023/09/10 10:05:18;;;;;;;1.33;1.10;;;;;;;32.10;30.37;100213.16;5327239;26;32869;-80
2023/09/10 10:07:47;;;;;;;1.42;0.60;;;;;;;32.41;30.24;100204.59;5307769;26;33029;-80
2023/09/10 10:10:20;;;;;;;0.55;0.52;;;;;;;32.26;29.93;100196.47;5346043;26;32941;-80
2023/09/10 10:12:48;;;;;;;2.78;1.05;;;;;;;31.78;31.72;100209.87;5326315;26;32194;-81
2023/09/10 10:15:16;;;;;;;0.40;0.40;;;;;;;32.12;30.68;100202.84;5327293;26;34358;-80
2023/09/10 10:17:45;;;;;;;4.60;1.05;;;;;;;31.96;29.27;100200.41;5308681;26;32988;-80
2023/09/10 10:20:13;;;;;;;1.45;1.25;;;;;;;32.45;29.44;100197.69;5327439;26;34032;-80
2023/09/10 10:22:42;;;;;;;1.48;1.02;;;;;;;32.39;28.60;100189.44;5327256;26;32483;-80
2023/09/10 10:25:10;;;;;;;1.95;1.17;;;;;;;32.29;29.46;100189.75;5345141;26;34092;-80
2023/09/10 10:27:41;;;;;;;1.48;0.88;;;;;;;32.60;29.11;100183.91;5328111;26;33948;-80
2023/09/10 10:30:09;;;;;;;1.23;0.93;;;;;;;32.77;28.45;100184.44;5327295;26;33693;-81
2023/09/10 10:32:39;;;;;;;0.70;0.70;;;;;;;32.88;29.81;100181.94;5309100;26;32623;-80
2023/09/10 10:35:09;;;;;;;5.00;0.98;;;;;;;33.58;26.19;100176.34;5326472;26;34048;-81
2023/09/10 10:37:57;;;;;;;4.35;1.45;;;;;;;33.48;25.89;100178.66;5327203;26;33936;-81
2023/09/10 10:40:31;;;;;;;0.85;0.85;;;;;;;33.09;27.48;100170.09;5309011;26;33934;-81
2023/09/10 10:43:03;;;;;;;3.62;1.90;;;;;;;32.94;27.26;100176.75;5308622;26;33698;-81
2023/09/10 10:45:33;;;;;;;0.73;0.73;;;;;;;32.84;28.13;100177.94;5327612;26;34714;-80
2023/09/10 10:48:06;;;;;;;2.35;0.85;;;;;;;33.18;27.85;100176.19;5327326;26;33443;-81
2023/09/10 10:50:35;;;;;;;3.37;1.35;;;;;;;33.41;26.74;100170.38;5327099;26;34790;-81
2023/09/10 10:53:15;;;;;;;1.70;1.48;;;;;;;33.27;27.48;100160.44;5327221;26;33009;-80
2023/09/10 10:55:43;;;;;;;1.35;0.95;;;;;;;33.06;27.78;100159.53;5326651;26;33757;-81
2023/09/10 10:58:11;;;;;;;1.67;1.12;;;;;;;33.25;27.91;100163.41;5327648;26;33873;-81
2023/09/10 11:00:39;;;;;;;2.17;1.08;;;;;;;33.73;27.19;100155.09;5345278;26;33114;-80
2023/09/10 11:03:13;;;;;;;1.15;0.60;;;;;;;33.74;26.99;100151.31;5345331;26;33227;-80
2023/09/10 11:05:53;;;;;;;0.88;0.88;;;;;;;33.70;26.18;100150.03;5309621;26;33764;-81
2023/09/10 11:08:28;;;;;;;1.42;1.25;;;;;;;33.26;26.15;100142.34;5345813;26;34839;-80
2023/09/10 11:10:56;;;;;;;0.85;0.57;;;;;;;33.48;26.69;100141.19;5346041;26;33498;-80
2023/09/10 11:13:24;;;;;;;0.90;0.90;;;;;;;33.18;25.60;100143.38;5290431;26;33568;-80
2023/09/10 11:16:12;;;;;;;0.77;0.57;;;;;;;33.23;26.66;100138.13;5309076;26;32994;-81
2023/09/10 11:18:41;;;;;;;1.48;0.57;;;;;;;33.05;26.22;100130.50;5364582;26;34053;-81
2023/09/10 11:21:14;;;;;;;1.60;1.10;;;;;;;33.25;26.01;100136.03;5326349;26;33566;-80
2023/09/10 11:23:50;;;;;;;1.30;1.20;;;;;;;33.31;26.04;100131.63;5344392;26;33094;-80
2023/09/10 11:26:18;;;;;;;1.95;1.33;;;;;;;33.27;26.30;100141.28;5345355;26;33902;-82
2023/09/10 11:28:49;;;;;;;3.92;1.73;;;;;;;33.08;27.33;100145.66;5345398;26;33892;-80
2023/09/10 11:31:36;;;;;;;1.05;0.73;;;;;;;32.86;27.05;100136.72;5326717;26;33951;-80
2023/09/10 11:34:23;;;;;;;2.90;1.52;;;;;;;32.89;27.05;100137.12;5365607;26;33531;-81